sensor_id;sensor_type;location;lat;lon;timestamp;P1;durP1;ratioP1;P2;durP2;ratioP2
20792;SDS011;10556;-33.662;151.094;2023-08-12T00:02:53;3.63;;;1.00;;
20792;SDS011;10556;-33.662;151.094;2023-08-12T00:07:55;3.07;;;1.13;;
20792;SDS011;10556;-33.662;151.094;2023-08-12T00:12:56;4.87;;;1.10;;
20792;SDS011;10556;-33.662;151.094;2023-08-12T00:17:59;1.73;;;0.77;;
20792;SDS011;10556;-33.662;151.094;2023-08-12T00:23:00;4.07;;;0.93;;
20792;SDS011;10556;-33.662;151.094;2023-08-12T00:28:01;1.07;;;0.60;;
20792;SDS011;10556;-33.662;151.094;2023-08-12T00:33:05;1.73;;;0.77;;
20792;SDS011;10556;-33.662;151.094;2023-08-12T00:38:06;3.10;;;0.80;;
20792;SDS011;10556;-33.662;151.094;2023-08-12T00:43:07;4.10;;;0.73;;
20792;SDS011;10556;-33.662;151.094;2023-08-12T00:48:10;1.27;;;0.40;;
20792;SDS011;10556;-33.662;151.094;2023-08-12T00:53:12;2.07;;;0.60;;
20792;SDS011;10556;-33.662;151.094;2023-08-12T00:58:14;2.90;;;1.00;;
20792;SDS011;10556;-33.662;151.094;2023-08-12T01:03:17;3.23;;;1.00;;
20792;SDS011;10556;-33.662;151.094;2023-08-12T01:08:18;1.90;;;0.70;;
20792;SDS011;10556;-33.662;151.094;2023-08-12T01:13:21;3.60;;;1.20;;
20792;SDS011;10556;-33.662;151.094;2023-08-12T01:18:27;5.13;;;1.30;;
20792;SDS011;10556;-33.662;151.094;2023-08-12T01:23:30;2.63;;;1.00;;
20792;SDS011;10556;-33.662;151.094;2023-08-12T01:28:32;5.13;;;1.33;;
20792;SDS011;10556;-33.662;151.094;2023-08-12T01:33:34;5.83;;;1.13;;
20792;SDS011;10556;-33.662;151.094;2023-08-12T01:38:42;7.03;;;1.53;;
20792;SDS011;10556;-33.662;151.094;2023-08-12T01:43:44;3.50;;;0.87;;
20792;SDS011;10556;-33.662;151.094;2023-08-12T01:48:45;2.13;;;0.67;;
20792;SDS011;10556;-33.662;151.094;2023-08-12T01:53:48;4.30;;;1.17;;
20792;SDS011;10556;-33.662;151.094;2023-08-12T01:58:49;4.30;;;0.97;;
20792;SDS011;10556;-33.662;151.094;2023-08-12T02:03:51;1.70;;;0.60;;
20792;SDS011;10556;-33.662;151.094;2023-08-12T02:08:54;1.10;;;0.50;;
20792;SDS011;10556;-33.662;151.094;2023-08-12T02:13:55;2.83;;;0.77;;
20792;SDS011;10556;-33.662;151.094;2023-08-12T02:18:56;3.87;;;0.70;;
20792;SDS011;10556;-33.662;151.094;2023-08-12T02:23:59;2.97;;;0.80;;
20792;SDS011;10556;-33.662;151.094;2023-08-12T02:29:00;2.70;;;0.50;;
20792;SDS011;10556;-33.662;151.094;2023-08-12T02:34:02;4.30;;;1.10;;
20792;SDS011;10556;-33.662;151.094;2023-08-12T02:39:05;1.67;;;0.47;;
20792;SDS011;10556;-33.662;151.094;2023-08-12T02:44:06;3.07;;;0.67;;
20792;SDS011;10556;-33.662;151.094;2023-08-12T02:49:07;2.40;;;0.80;;
20792;SDS011;10556;-33.662;151.094;2023-08-12T02:54:10;6.70;;;1.10;;
20792;SDS011;10556;-33.662;151.094;2023-08-12T02:59:12;6.13;;;1.23;;
20792;SDS011;10556;-33.662;151.094;2023-08-12T03:04:13;4.83;;;1.17;;
20792;SDS011;10556;-33.662;151.094;2023-08-12T03:09:16;11.03;;;1.30;;
20792;SDS011;10556;-33.662;151.094;2023-08-12T03:14:17;6.93;;;1.03;;
20792;SDS011;10556;-33.662;151.094;2023-08-12T03:19:18;1.57;;;0.60;;
20792;SDS011;10556;-33.662;151.094;2023-08-12T03:24:22;6.50;;;0.83;;
20792;SDS011;10556;-33.662;151.094;2023-08-12T03:29:23;1.97;;;0.77;;
20792;SDS011;10556;-33.662;151.094;2023-08-12T03:34:24;5.50;;;0.90;;
20792;SDS011;10556;-33.662;151.094;2023-08-12T03:39:27;3.67;;;0.73;;
20792;SDS011;10556;-33.662;151.094;2023-08-12T03:44:28;4.53;;;0.80;;
20792;SDS011;10556;-33.662;151.094;2023-08-12T03:49:30;3.57;;;0.80;;
20792;SDS011;10556;-33.662;151.094;2023-08-12T03:54:33;7.73;;;1.10;;
20792;SDS011;10556;-33.662;151.094;2023-08-12T03:59:34;4.43;;;0.87;;
20792;SDS011;10556;-33.662;151.094;2023-08-12T04:04:35;3.10;;;0.70;;
20792;SDS011;10556;-33.662;151.094;2023-08-12T04:09:38;3.60;;;0.80;;
20792;SDS011;10556;-33.662;151.094;2023-08-12T04:14:39;3.40;;;0.80;;
20792;SDS011;10556;-33.662;151.094;2023-08-12T04:19:41;4.93;;;0.90;;
20792;SDS011;10556;-33.662;151.094;2023-08-12T04:24:44;3.70;;;0.80;;
20792;SDS011;10556;-33.662;151.094;2023-08-12T04:29:45;3.50;;;0.97;;
20792;SDS011;10556;-33.662;151.094;2023-08-12T04:34:46;7.13;;;1.10;;
20792;SDS011;10556;-33.662;151.094;2023-08-12T04:39:49;7.23;;;0.80;;
20792;SDS011;10556;-33.662;151.094;2023-08-12T04:44:51;4.90;;;0.87;;
20792;SDS011;10556;-33.662;151.094;2023-08-12T04:49:52;4.40;;;0.77;;
20792;SDS011;10556;-33.662;151.094;2023-08-12T04:54:55;2.40;;;0.40;;
20792;SDS011;10556;-33.662;151.094;2023-08-12T04:59:56;4.23;;;0.50;;
20792;SDS011;10556;-33.662;151.094;2023-08-12T05:04:58;2.43;;;0.40;;
20792;SDS011;10556;-33.662;151.094;2023-08-12T05:10:01;5.00;;;0.70;;
20792;SDS011;10556;-33.662;151.094;2023-08-12T05:15:02;1.63;;;0.60;;
20792;SDS011;10556;-33.662;151.094;2023-08-12T05:20:04;4.13;;;0.70;;
20792;SDS011;10556;-33.662;151.094;2023-08-12T05:25:07;1.47;;;0.40;;
20792;SDS011;10556;-33.662;151.094;2023-08-12T05:30:09;4.67;;;1.13;;
20792;SDS011;10556;-33.662;151.094;2023-08-12T05:35:10;5.10;;;1.00;;
20792;SDS011;10556;-33.662;151.094;2023-08-12T05:40:13;2.80;;;0.70;;
20792;SDS011;10556;-33.662;151.094;2023-08-12T05:45:15;5.57;;;0.87;;
20792;SDS011;10556;-33.662;151.094;2023-08-12T05:50:18;8.03;;;1.10;;
20792;SDS011;10556;-33.662;151.094;2023-08-12T05:55:21;5.83;;;1.50;;
20792;SDS011;10556;-33.662;151.094;2023-08-12T06:00:22;6.07;;;1.30;;
20792;SDS011;10556;-33.662;151.094;2023-08-12T06:05:23;6.50;;;1.13;;
20792;SDS011;10556;-33.662;151.094;2023-08-12T06:10:26;2.37;;;0.80;;
20792;SDS011;10556;-33.662;151.094;2023-08-12T06:15:27;4.13;;;0.93;;
20792;SDS011;10556;-33.662;151.094;2023-08-12T06:20:29;5.17;;;1.00;;
20792;SDS011;10556;-33.662;151.094;2023-08-12T06:25:32;8.23;;;1.37;;
20792;SDS011;10556;-33.662;151.094;2023-08-12T06:30:33;3.70;;;1.20;;
20792;SDS011;10556;-33.662;151.094;2023-08-12T06:35:34;3.10;;;0.80;;
20792;SDS011;10556;-33.662;151.094;2023-08-12T06:40:37;7.10;;;1.20;;
20792;SDS011;10556;-33.662;151.094;2023-08-12T06:45:39;5.57;;;1.00;;
20792;SDS011;10556;-33.662;151.094;2023-08-12T06:50:40;4.17;;;1.23;;
20792;SDS011;10556;-33.662;151.094;2023-08-12T06:55:45;4.83;;;1.87;;
20792;SDS011;10556;-33.662;151.094;2023-08-12T07:00:47;6.90;;;1.70;;
20792;SDS011;10556;-33.662;151.094;2023-08-12T07:05:48;7.27;;;1.37;;
20792;SDS011;10556;-33.662;151.094;2023-08-12T07:10:51;5.23;;;1.20;;
20792;SDS011;10556;-33.662;151.094;2023-08-12T07:15:53;7.23;;;1.43;;
20792;SDS011;10556;-33.662;151.094;2023-08-12T07:20:54;8.43;;;1.27;;
20792;SDS011;10556;-33.662;151.094;2023-08-12T07:25:58;4.50;;;0.90;;
20792;SDS011;10556;-33.662;151.094;2023-08-12T07:31:00;3.60;;;1.10;;
20792;SDS011;10556;-33.662;151.094;2023-08-12T07:36:02;5.33;;;1.00;;
20792;SDS011;10556;-33.662;151.094;2023-08-12T07:41:05;4.40;;;1.20;;
20792;SDS011;10556;-33.662;151.094;2023-08-12T07:46:06;3.10;;;0.87;;
20792;SDS011;10556;-33.662;151.094;2023-08-12T07:51:07;3.77;;;1.13;;
20792;SDS011;10556;-33.662;151.094;2023-08-12T07:56:11;3.10;;;1.10;;
20792;SDS011;10556;-33.662;151.094;2023-08-12T08:01:12;4.63;;;1.20;;
20792;SDS011;10556;-33.662;151.094;2023-08-12T08:06:13;4.27;;;1.53;;
20792;SDS011;10556;-33.662;151.094;2023-08-12T08:11:16;2.93;;;1.13;;
20792;SDS011;10556;-33.662;151.094;2023-08-12T08:16:17;8.20;;;2.30;;
20792;SDS011;10556;-33.662;151.094;2023-08-12T08:21:19;7.13;;;2.27;;
20792;SDS011;10556;-33.662;151.094;2023-08-12T08:26:22;9.70;;;2.37;;
20792;SDS011;10556;-33.662;151.094;2023-08-12T08:31:23;2.93;;;1.40;;
20792;SDS011;10556;-33.662;151.094;2023-08-12T08:36:25;4.50;;;1.50;;
20792;SDS011;10556;-33.662;151.094;2023-08-12T08:41:28;5.20;;;1.10;;
20792;SDS011;10556;-33.662;151.094;2023-08-12T08:46:31;3.53;;;1.33;;
20792;SDS011;10556;-33.662;151.094;2023-08-12T08:51:32;6.20;;;1.40;;
20792;SDS011;10556;-33.662;151.094;2023-08-12T08:56:35;6.83;;;2.00;;
20792;SDS011;10556;-33.662;151.094;2023-08-12T09:01:38;7.13;;;1.70;;
20792;SDS011;10556;-33.662;151.094;2023-08-12T09:06:40;10.60;;;1.83;;
20792;SDS011;10556;-33.662;151.094;2023-08-12T09:11:44;6.60;;;1.30;;
20792;SDS011;10556;-33.662;151.094;2023-08-12T09:16:45;9.87;;;4.80;;
20792;SDS011;10556;-33.662;151.094;2023-08-12T09:21:49;7.13;;;2.00;;
20792;SDS011;10556;-33.662;151.094;2023-08-12T09:26:54;5.73;;;2.83;;
20792;SDS011;10556;-33.662;151.094;2023-08-12T09:31:56;4.63;;;2.43;;
20792;SDS011;10556;-33.662;151.094;2023-08-12T09:37:06;4.40;;;1.70;;
20792;SDS011;10556;-33.662;151.094;2023-08-12T09:42:09;4.77;;;1.40;;
20792;SDS011;10556;-33.662;151.094;2023-08-12T09:47:10;8.67;;;1.60;;
20792;SDS011;10556;-33.662;151.094;2023-08-12T09:52:11;5.50;;;2.63;;
20792;SDS011;10556;-33.662;151.094;2023-08-12T09:57:15;5.37;;;1.50;;
20792;SDS011;10556;-33.662;151.094;2023-08-12T10:02:18;4.53;;;1.40;;
20792;SDS011;10556;-33.662;151.094;2023-08-12T10:07:21;6.63;;;2.10;;
20792;SDS011;10556;-33.662;151.094;2023-08-12T10:12:24;9.87;;;2.17;;
20792;SDS011;10556;-33.662;151.094;2023-08-12T10:17:25;6.03;;;2.07;;
20792;SDS011;10556;-33.662;151.094;2023-08-12T10:22:30;4.03;;;1.97;;
20792;SDS011;10556;-33.662;151.094;2023-08-12T10:27:33;10.00;;;3.20;;
20792;SDS011;10556;-33.662;151.094;2023-08-12T10:32:34;10.63;;;3.43;;
20792;SDS011;10556;-33.662;151.094;2023-08-12T10:37:35;10.90;;;3.00;;
20792;SDS011;10556;-33.662;151.094;2023-08-12T10:42:42;9.70;;;2.97;;
20792;SDS011;10556;-33.662;151.094;2023-08-12T10:47:47;7.97;;;2.43;;
20792;SDS011;10556;-33.662;151.094;2023-08-12T10:52:51;13.03;;;6.30;;
20792;SDS011;10556;-33.662;151.094;2023-08-12T10:57:54;15.23;;;6.77;;
20792;SDS011;10556;-33.662;151.094;2023-08-12T11:02:58;6.97;;;3.00;;
20792;SDS011;10556;-33.662;151.094;2023-08-12T11:08:00;9.13;;;2.47;;
20792;SDS011;10556;-33.662;151.094;2023-08-12T11:13:04;6.23;;;2.40;;
20792;SDS011;10556;-33.662;151.094;2023-08-12T11:18:05;7.43;;;3.40;;
20792;SDS011;10556;-33.662;151.094;2023-08-12T11:23:07;9.73;;;3.90;;
20792;SDS011;10556;-33.662;151.094;2023-08-12T11:28:10;16.00;;;5.20;;
20792;SDS011;10556;-33.662;151.094;2023-08-12T11:33:11;10.83;;;3.63;;
20792;SDS011;10556;-33.662;151.094;2023-08-12T11:38:12;12.73;;;3.50;;
20792;SDS011;10556;-33.662;151.094;2023-08-12T11:43:17;6.43;;;2.70;;
20792;SDS011;10556;-33.662;151.094;2023-08-12T11:48:21;7.63;;;2.50;;
20792;SDS011;10556;-33.662;151.094;2023-08-12T11:53:22;9.60;;;2.63;;
20792;SDS011;10556;-33.662;151.094;2023-08-12T11:58:25;19.23;;;4.37;;
20792;SDS011;10556;-33.662;151.094;2023-08-12T12:03:28;18.10;;;4.53;;
20792;SDS011;10556;-33.662;151.094;2023-08-12T12:08:31;8.57;;;2.30;;
20792;SDS011;10556;-33.662;151.094;2023-08-12T12:13:34;6.30;;;2.00;;
20792;SDS011;10556;-33.662;151.094;2023-08-12T12:18:35;7.70;;;2.00;;
20792;SDS011;10556;-33.662;151.094;2023-08-12T12:23:36;15.40;;;3.70;;
20792;SDS011;10556;-33.662;151.094;2023-08-12T12:28:39;5.67;;;2.33;;
20792;SDS011;10556;-33.662;151.094;2023-08-12T12:33:41;10.07;;;5.30;;
20792;SDS011;10556;-33.662;151.094;2023-08-12T12:38:42;11.13;;;3.13;;
20792;SDS011;10556;-33.662;151.094;2023-08-12T12:43:45;10.37;;;3.23;;
20792;SDS011;10556;-33.662;151.094;2023-08-12T12:48:46;10.37;;;3.80;;
20792;SDS011;10556;-33.662;151.094;2023-08-12T12:53:48;8.00;;;2.83;;
20792;SDS011;10556;-33.662;151.094;2023-08-12T12:58:51;13.30;;;3.70;;
20792;SDS011;10556;-33.662;151.094;2023-08-12T13:03:52;9.57;;;3.63;;
20792;SDS011;10556;-33.662;151.094;2023-08-12T13:08:53;14.17;;;3.20;;
20792;SDS011;10556;-33.662;151.094;2023-08-12T13:13:56;9.80;;;2.80;;
20792;SDS011;10556;-33.662;151.094;2023-08-12T13:18:58;5.83;;;3.63;;
20792;SDS011;10556;-33.662;151.094;2023-08-12T13:23:59;16.33;;;4.80;;
20792;SDS011;10556;-33.662;151.094;2023-08-12T13:29:02;15.33;;;5.37;;
20792;SDS011;10556;-33.662;151.094;2023-08-12T13:34:03;15.57;;;5.57;;
20792;SDS011;10556;-33.662;151.094;2023-08-12T13:39:05;17.47;;;5.57;;
20792;SDS011;10556;-33.662;151.094;2023-08-12T13:44:08;16.30;;;5.73;;
20792;SDS011;10556;-33.662;151.094;2023-08-12T13:49:09;17.13;;;4.73;;
20792;SDS011;10556;-33.662;151.094;2023-08-12T13:54:10;19.83;;;4.53;;
20792;SDS011;10556;-33.662;151.094;2023-08-12T13:59:13;14.23;;;4.90;;
20792;SDS011;10556;-33.662;151.094;2023-08-12T14:04:15;21.77;;;5.53;;
20792;SDS011;10556;-33.662;151.094;2023-08-12T14:09:16;5.93;;;3.17;;
20792;SDS011;10556;-33.662;151.094;2023-08-12T14:14:19;9.73;;;3.00;;
20792;SDS011;10556;-33.662;151.094;2023-08-12T14:19:20;7.73;;;2.03;;
20792;SDS011;10556;-33.662;151.094;2023-08-12T14:24:22;8.17;;;2.43;;
20792;SDS011;10556;-33.662;151.094;2023-08-12T14:29:25;10.70;;;2.53;;
20792;SDS011;10556;-33.662;151.094;2023-08-12T14:34:26;20.57;;;3.47;;
20792;SDS011;10556;-33.662;151.094;2023-08-12T14:39:27;12.80;;;3.37;;
20792;SDS011;10556;-33.662;151.094;2023-08-12T14:44:30;16.87;;;3.83;;
20792;SDS011;10556;-33.662;151.094;2023-08-12T14:49:32;15.57;;;4.37;;
20792;SDS011;10556;-33.662;151.094;2023-08-12T14:54:33;12.87;;;3.33;;
20792;SDS011;10556;-33.662;151.094;2023-08-12T14:59:36;13.10;;;2.87;;
20792;SDS011;10556;-33.662;151.094;2023-08-12T15:04:37;10.73;;;2.33;;
20792;SDS011;10556;-33.662;151.094;2023-08-12T15:09:38;15.93;;;3.13;;
20792;SDS011;10556;-33.662;151.094;2023-08-12T15:14:41;14.37;;;3.73;;
20792;SDS011;10556;-33.662;151.094;2023-08-12T15:19:43;13.43;;;3.97;;
20792;SDS011;10556;-33.662;151.094;2023-08-12T15:24:44;13.27;;;3.70;;
20792;SDS011;10556;-33.662;151.094;2023-08-12T15:29:47;6.30;;;2.60;;
20792;SDS011;10556;-33.662;151.094;2023-08-12T15:34:48;12.10;;;2.43;;
20792;SDS011;10556;-33.662;151.094;2023-08-12T15:39:50;11.30;;;2.63;;
20792;SDS011;10556;-33.662;151.094;2023-08-12T15:44:53;6.40;;;2.33;;
20792;SDS011;10556;-33.662;151.094;2023-08-12T15:49:54;7.00;;;1.93;;
20792;SDS011;10556;-33.662;151.094;2023-08-12T15:54:55;7.40;;;1.90;;
20792;SDS011;10556;-33.662;151.094;2023-08-12T15:59:58;6.00;;;1.63;;
20792;SDS011;10556;-33.662;151.094;2023-08-12T16:05:00;5.87;;;1.40;;
20792;SDS011;10556;-33.662;151.094;2023-08-12T16:10:01;9.83;;;2.87;;
20792;SDS011;10556;-33.662;151.094;2023-08-12T16:15:04;6.70;;;2.53;;
20792;SDS011;10556;-33.662;151.094;2023-08-12T16:20:06;13.97;;;3.40;;
20792;SDS011;10556;-33.662;151.094;2023-08-12T16:25:08;16.90;;;3.37;;
20792;SDS011;10556;-33.662;151.094;2023-08-12T16:30:12;13.73;;;4.13;;
20792;SDS011;10556;-33.662;151.094;2023-08-12T16:35:13;19.17;;;4.07;;
20792;SDS011;10556;-33.662;151.094;2023-08-12T16:40:15;15.73;;;2.80;;
20792;SDS011;10556;-33.662;151.094;2023-08-12T16:45:18;12.53;;;2.47;;
20792;SDS011;10556;-33.662;151.094;2023-08-12T16:50:19;8.63;;;2.30;;
20792;SDS011;10556;-33.662;151.094;2023-08-12T16:55:20;8.70;;;2.17;;
20792;SDS011;10556;-33.662;151.094;2023-08-12T17:00:23;11.93;;;3.47;;
20792;SDS011;10556;-33.662;151.094;2023-08-12T17:05:25;10.20;;;3.23;;
20792;SDS011;10556;-33.662;151.094;2023-08-12T17:10:26;19.67;;;3.33;;
20792;SDS011;10556;-33.662;151.094;2023-08-12T17:15:29;19.50;;;6.90;;
20792;SDS011;10556;-33.662;151.094;2023-08-12T17:20:30;25.00;;;8.53;;
20792;SDS011;10556;-33.662;151.094;2023-08-12T17:25:32;16.43;;;7.37;;
20792;SDS011;10556;-33.662;151.094;2023-08-12T17:30:35;40.03;;;14.63;;
20792;SDS011;10556;-33.662;151.094;2023-08-12T17:35:36;60.47;;;20.97;;
20792;SDS011;10556;-33.662;151.094;2023-08-12T17:40:37;72.30;;;25.80;;
20792;SDS011;10556;-33.662;151.094;2023-08-12T17:45:40;66.37;;;25.37;;
20792;SDS011;10556;-33.662;151.094;2023-08-12T17:50:42;65.73;;;24.10;;
20792;SDS011;10556;-33.662;151.094;2023-08-12T17:55:43;83.27;;;30.33;;
20792;SDS011;10556;-33.662;151.094;2023-08-12T18:00:46;72.47;;;26.80;;
20792;SDS011;10556;-33.662;151.094;2023-08-12T18:05:48;87.03;;;29.67;;
20792;SDS011;10556;-33.662;151.094;2023-08-12T18:10:49;119.07;;;47.47;;
20792;SDS011;10556;-33.662;151.094;2023-08-12T18:15:52;128.10;;;47.27;;
20792;SDS011;10556;-33.662;151.094;2023-08-12T18:20:53;142.53;;;51.37;;
20792;SDS011;10556;-33.662;151.094;2023-08-12T18:25:55;124.23;;;44.83;;
20792;SDS011;10556;-33.662;151.094;2023-08-12T18:30:58;92.60;;;38.93;;
20792;SDS011;10556;-33.662;151.094;2023-08-12T18:35:59;70.53;;;25.27;;
20792;SDS011;10556;-33.662;151.094;2023-08-12T18:41:01;47.17;;;20.30;;
20792;SDS011;10556;-33.662;151.094;2023-08-12T18:46:04;42.00;;;17.17;;
20792;SDS011;10556;-33.662;151.094;2023-08-12T18:51:06;43.00;;;13.77;;
20792;SDS011;10556;-33.662;151.094;2023-08-12T18:56:07;41.67;;;11.30;;
20792;SDS011;10556;-33.662;151.094;2023-08-12T19:01:10;28.13;;;8.53;;
20792;SDS011;10556;-33.662;151.094;2023-08-12T19:06:12;25.27;;;9.83;;
20792;SDS011;10556;-33.662;151.094;2023-08-12T19:11:13;46.63;;;16.90;;
20792;SDS011;10556;-33.662;151.094;2023-08-12T19:16:16;34.00;;;12.40;;
20792;SDS011;10556;-33.662;151.094;2023-08-12T19:21:18;47.03;;;15.43;;
20792;SDS011;10556;-33.662;151.094;2023-08-12T19:26:19;42.57;;;14.03;;
20792;SDS011;10556;-33.662;151.094;2023-08-12T19:31:22;35.53;;;13.20;;
20792;SDS011;10556;-33.662;151.094;2023-08-12T19:36:23;44.13;;;12.07;;
20792;SDS011;10556;-33.662;151.094;2023-08-12T19:41:25;18.83;;;9.03;;
20792;SDS011;10556;-33.662;151.094;2023-08-12T19:46:28;21.40;;;9.70;;
20792;SDS011;10556;-33.662;151.094;2023-08-12T19:51:29;20.70;;;9.63;;
20792;SDS011;10556;-33.662;151.094;2023-08-12T19:56:31;23.97;;;10.53;;
20792;SDS011;10556;-33.662;151.094;2023-08-12T20:01:34;17.13;;;8.63;;
20792;SDS011;10556;-33.662;151.094;2023-08-12T20:06:35;32.33;;;10.37;;
20792;SDS011;10556;-33.662;151.094;2023-08-12T20:11:36;23.20;;;7.23;;
20792;SDS011;10556;-33.662;151.094;2023-08-12T20:16:39;25.33;;;7.80;;
20792;SDS011;10556;-33.662;151.094;2023-08-12T20:21:40;21.57;;;7.60;;
20792;SDS011;10556;-33.662;151.094;2023-08-12T20:26:42;30.93;;;8.43;;
20792;SDS011;10556;-33.662;151.094;2023-08-12T20:31:45;18.40;;;6.60;;
20792;SDS011;10556;-33.662;151.094;2023-08-12T20:36:46;30.50;;;7.40;;
20792;SDS011;10556;-33.662;151.094;2023-08-12T20:41:47;24.60;;;6.53;;
20792;SDS011;10556;-33.662;151.094;2023-08-12T20:46:50;27.57;;;6.63;;
20792;SDS011;10556;-33.662;151.094;2023-08-12T20:51:52;21.90;;;6.10;;
20792;SDS011;10556;-33.662;151.094;2023-08-12T20:56:53;22.17;;;6.33;;
20792;SDS011;10556;-33.662;151.094;2023-08-12T21:01:56;16.33;;;5.57;;
20792;SDS011;10556;-33.662;151.094;2023-08-12T21:06:57;12.93;;;4.73;;
20792;SDS011;10556;-33.662;151.094;2023-08-12T21:11:59;21.93;;;5.80;;
20792;SDS011;10556;-33.662;151.094;2023-08-12T21:17:02;26.30;;;7.10;;
20792;SDS011;10556;-33.662;151.094;2023-08-12T21:22:03;18.27;;;6.80;;
20792;SDS011;10556;-33.662;151.094;2023-08-12T21:27:04;28.93;;;9.20;;
20792;SDS011;10556;-33.662;151.094;2023-08-12T21:32:07;23.53;;;8.23;;
20792;SDS011;10556;-33.662;151.094;2023-08-12T21:37:09;29.37;;;8.67;;
20792;SDS011;10556;-33.662;151.094;2023-08-12T21:42:10;29.93;;;9.93;;
20792;SDS011;10556;-33.662;151.094;2023-08-12T21:47:13;28.73;;;8.80;;
20792;SDS011;10556;-33.662;151.094;2023-08-12T21:52:14;30.30;;;9.80;;
20792;SDS011;10556;-33.662;151.094;2023-08-12T21:57:16;44.17;;;10.43;;
20792;SDS011;10556;-33.662;151.094;2023-08-12T22:02:23;27.40;;;8.40;;
20792;SDS011;10556;-33.662;151.094;2023-08-12T22:07:25;28.93;;;7.83;;
20792;SDS011;10556;-33.662;151.094;2023-08-12T22:12:26;21.23;;;7.73;;
20792;SDS011;10556;-33.662;151.094;2023-08-12T22:17:30;34.57;;;9.33;;
20792;SDS011;10556;-33.662;151.094;2023-08-12T22:22:31;19.30;;;7.37;;
20792;SDS011;10556;-33.662;151.094;2023-08-12T22:27:32;27.23;;;7.80;;
20792;SDS011;10556;-33.662;151.094;2023-08-12T22:32:35;25.80;;;6.77;;
20792;SDS011;10556;-33.662;151.094;2023-08-12T22:37:36;19.03;;;6.33;;
20792;SDS011;10556;-33.662;151.094;2023-08-12T22:42:38;14.47;;;5.43;;
20792;SDS011;10556;-33.662;151.094;2023-08-12T22:47:41;12.17;;;5.27;;
20792;SDS011;10556;-33.662;151.094;2023-08-12T22:52:42;20.03;;;4.90;;
20792;SDS011;10556;-33.662;151.094;2023-08-12T22:57:43;11.67;;;3.90;;
20792;SDS011;10556;-33.662;151.094;2023-08-12T23:02:47;6.30;;;2.83;;
20792;SDS011;10556;-33.662;151.094;2023-08-12T23:07:48;8.57;;;3.20;;
20792;SDS011;10556;-33.662;151.094;2023-08-12T23:12:50;14.20;;;3.27;;
20792;SDS011;10556;-33.662;151.094;2023-08-12T23:17:53;13.07;;;3.27;;
20792;SDS011;10556;-33.662;151.094;2023-08-12T23:22:54;13.20;;;4.77;;
20792;SDS011;10556;-33.662;151.094;2023-08-12T23:27:55;8.60;;;3.53;;
20792;SDS011;10556;-33.662;151.094;2023-08-12T23:32:58;13.70;;;3.30;;
20792;SDS011;10556;-33.662;151.094;2023-08-12T23:37:59;8.97;;;3.13;;
20792;SDS011;10556;-33.662;151.094;2023-08-12T23:43:01;18.20;;;3.73;;
20792;SDS011;10556;-33.662;151.094;2023-08-12T23:48:04;13.00;;;3.70;;
20792;SDS011;10556;-33.662;151.094;2023-08-12T23:53:05;15.67;;;3.03;;
20792;SDS011;10556;-33.662;151.094;2023-08-12T23:58:07;9.63;;;2.77;;
